Time;durP1;ratioP1;P1;durP2;ratioP2;P2;SDS_P1;SDS_P2;PMS_P1;PMS_P2;Temp;Humidity;BMP_temperature;BMP_pressure;BME280_temperature;BME280_humidity;BME280_pressure;Samples;Min_cycle;Max_cycle;Signal;HPM_P1;HPM_P2
2022/04/20 00:01:30;;;;;;;6.37;5.77;;;;;;;-143.37;100.00;62585.38;5053229;28;20522;-75
2022/04/20 00:04:06;;;;;;;6.47;5.73;;;;;;;-143.37;100.00;62585.38;5037569;28;20434;-75
2022/04/20 00:06:43;;;;;;;6.13;5.53;;;;;;;-143.37;100.00;62585.38;5036614;28;20493;-75
2022/04/20 00:09:18;;;;;;;6.80;6.10;;;;;;;-143.37;100.00;62585.38;5054254;28;20469;-75
2022/04/20 00:11:54;;;;;;;6.77;6.10;;;;;;;-143.37;100.00;62585.38;5052342;28;20446;-75
2022/04/20 00:14:31;;;;;;;7.37;6.70;;;;;;;-143.37;100.00;62585.38;5033493;28;20454;-75
2022/04/20 00:17:07;;;;;;;6.27;5.67;;;;;;;-143.37;100.00;62585.38;5051413;28;20570;-75
2022/04/20 00:19:52;;;;;;;8.37;6.80;;;;;;;-143.37;100.00;62585.38;5038035;28;20904;-75
2022/04/20 00:22:27;;;;;;;7.70;7.00;;;;;;;-143.37;100.00;62585.38;5050084;28;20495;-75
2022/04/20 00:25:03;;;;;;;9.40;6.30;;;;;;;-143.37;100.00;62585.38;5068232;28;20533;-75
2022/04/20 00:27:39;;;;;;;7.53;6.80;;;;;;;-143.37;100.00;62585.38;5036708;28;20547;-75
2022/04/20 00:30:19;;;;;;;8.10;6.20;;;;;;;-143.37;100.00;62585.38;5037127;28;20470;-75
2022/04/20 00:32:59;;;;;;;7.47;6.87;;;;;;;-143.37;100.00;62585.38;5031261;28;20583;-75
2022/04/20 00:35:35;;;;;;;7.37;6.67;;;;;;;-143.37;100.00;62585.38;5043817;28;20448;-75
2022/04/20 00:38:12;;;;;;;7.60;6.70;;;;;;;-143.37;100.00;62585.38;5046969;28;20471;-75
2022/04/20 00:40:49;;;;;;;7.13;6.43;;;;;;;-143.37;100.00;62585.38;5051403;28;20442;-75
2022/04/20 00:43:27;;;;;;;7.80;7.00;;;;;;;-143.37;100.00;62585.38;5054109;28;20451;-75
2022/04/20 00:46:06;;;;;;;7.63;6.87;;;;;;;-143.37;100.00;62585.38;5032141;28;20549;-75
2022/04/20 00:48:43;;;;;;;6.13;5.50;;;;;;;-143.37;100.00;62585.38;5051440;28;20470;-75
2022/04/20 00:51:20;;;;;;;7.17;6.47;;;;;;;-143.37;100.00;62585.38;5049776;28;20461;-75
2022/04/20 00:53:59;;;;;;;8.57;6.67;;;;;;;-143.37;100.00;62585.38;5032346;28;20458;-75
2022/04/20 00:56:35;;;;;;;7.17;6.53;;;;;;;-143.37;100.00;62585.38;5034494;28;20525;-75
2022/04/20 00:59:13;;;;;;;7.20;6.53;;;;;;;-143.37;100.00;62585.38;5052022;28;20807;-75
2022/04/20 01:01:50;;;;;;;9.87;7.10;;;;;;;-143.37;100.00;62585.38;5045379;28;20447;-75
2022/04/20 01:04:27;;;;;;;7.87;7.07;;;;;;;-143.37;100.00;62585.38;5026981;28;20540;-75
2022/04/20 01:07:43;;;;;;;7.00;6.30;;;;;;;-143.37;100.00;62585.38;4953652;28;20450;-75
2022/04/20 01:10:39;;;;;;;7.20;6.50;;;;;;;-143.37;100.00;62585.38;4969507;28;20454;-75
2022/04/20 01:13:43;;;;;;;6.97;6.37;;;;;;;-143.37;100.00;62585.38;5047861;28;20462;-75
2022/04/20 01:16:34;;;;;;;7.13;6.37;;;;;;;-143.37;100.00;62585.38;5050891;28;20971;-75
2022/04/20 01:19:39;;;;;;;6.90;6.30;;;;;;;-143.37;100.00;62585.38;5049865;28;20442;-75
2022/04/20 01:22:54;;;;;;;6.40;5.80;;;;;;;-143.37;100.00;62585.38;4968977;28;20485;-75
2022/04/20 01:25:40;;;;;;;6.60;6.00;;;;;;;-143.37;100.00;62585.38;4938225;28;20450;-75
2022/04/20 01:28:41;;;;;;;7.40;6.70;;;;;;;-143.37;100.00;62585.38;5032641;28;20806;-75
2022/04/20 01:31:46;;;;;;;7.13;6.37;;;;;;;-143.37;100.00;62585.38;5037790;28;20443;-75
2022/04/20 01:34:43;;;;;;;7.30;6.60;;;;;;;-143.37;100.00;62585.38;5038453;28;20461;-75
2022/04/20 01:37:18;;;;;;;6.87;6.27;;;;;;;-143.37;100.00;62585.38;5028616;28;20545;-75
2022/04/20 01:39:56;;;;;;;6.47;5.80;;;;;;;-143.37;100.00;62585.38;5028619;28;20442;-75
2022/04/20 01:42:32;;;;;;;6.97;6.27;;;;;;;-143.37;100.00;62585.38;5043179;28;20455;-75
2022/04/20 01:45:12;;;;;;;6.87;6.23;;;;;;;-143.37;100.00;62585.38;5035184;28;20493;-75
2022/04/20 01:47:57;;;;;;;6.80;6.20;;;;;;;-143.37;100.00;62585.38;5027317;28;20461;-75
2022/04/20 01:51:46;;;;;;;6.57;5.97;;;;;;;-143.37;100.00;62585.38;5033660;28;20451;-75
2022/04/20 01:54:04;;;;;;;7.30;6.60;;;;;;;-143.37;100.00;62585.38;5033781;28;20776;-75
2022/04/20 01:57:05;;;;;;;6.93;6.30;;;;;;;-143.37;100.00;62585.38;5045595;28;20450;-75
2022/04/20 01:59:56;;;;;;;9.70;6.10;;;;;;;-143.37;100.00;62585.38;5026355;28;20455;-75
2022/04/20 02:02:50;;;;;;;6.60;6.00;;;;;;;-143.37;100.00;62585.38;5050104;28;20535;-75
2022/04/20 02:05:45;;;;;;;7.20;5.80;;;;;;;-143.37;100.00;62585.38;5041796;28;20502;-75
2022/04/20 02:08:45;;;;;;;7.03;6.43;;;;;;;-143.37;100.00;62585.38;5026672;28;20443;-75
2022/04/20 02:11:46;;;;;;;8.63;6.60;;;;;;;-143.37;100.00;62585.38;5055837;28;20485;-75
2022/04/20 02:14:33;;;;;;;10.13;6.30;;;;;;;-143.37;100.00;62585.38;5049596;28;20438;-75
2022/04/20 02:17:30;;;;;;;7.27;6.27;;;;;;;-143.37;100.00;62585.38;5047246;28;20549;-74
2022/04/20 02:20:09;;;;;;;6.63;6.03;;;;;;;-143.37;100.00;62585.38;5055106;28;20529;-75
2022/04/20 02:22:45;;;;;;;6.60;6.10;;;;;;;-143.37;100.00;62585.38;5050877;28;20501;-75
2022/04/20 02:25:21;;;;;;;7.33;6.50;;;;;;;-143.37;100.00;62585.38;5034374;28;20536;-75
2022/04/20 02:27:56;;;;;;;7.10;6.50;;;;;;;-143.37;100.00;62585.38;5048550;28;20442;-76
2022/04/20 02:30:33;;;;;;;6.40;5.80;;;;;;;-143.37;100.00;62585.38;5031608;28;20538;-75
2022/04/20 02:33:09;;;;;;;7.20;6.50;;;;;;;-143.37;100.00;62585.38;5031320;28;20482;-75
2022/04/20 02:35:45;;;;;;;7.97;7.10;;;;;;;-143.37;100.00;62585.38;5034760;28;20451;-75
2022/04/20 02:38:20;;;;;;;8.20;5.80;;;;;;;-143.37;100.00;62585.38;5044165;28;20462;-75
2022/04/20 02:40:56;;;;;;;8.07;6.67;;;;;;;-143.37;100.00;62585.38;5028488;28;20541;-75
2022/04/20 02:43:33;;;;;;;6.60;6.00;;;;;;;-143.37;100.00;62585.38;5033093;28;20456;-75
2022/04/20 02:46:10;;;;;;;6.73;6.10;;;;;;;-143.37;100.00;62585.38;5034315;28;20469;-75
2022/04/20 02:48:46;;;;;;;7.70;6.90;;;;;;;-143.37;100.00;62585.38;5047849;28;20478;-75
2022/04/20 02:51:21;;;;;;;7.70;6.30;;;;;;;-143.37;100.00;62585.38;5045875;28;20443;-75
2022/04/20 02:53:57;;;;;;;6.23;5.23;;;;;;;-143.37;100.00;62585.38;5038290;28;20440;-75
2022/04/20 02:56:33;;;;;;;7.70;6.47;;;;;;;-143.37;100.00;62585.38;5020715;28;20461;-75
2022/04/20 02:59:10;;;;;;;6.77;5.87;;;;;;;-143.37;100.00;62585.38;5030515;28;20455;-75
2022/04/20 03:04:43;;;;;;;6.50;5.90;;;;;;;-143.37;100.00;62585.38;5009256;26;20551;-75
2022/04/20 03:07:19;;;;;;;7.60;6.87;;;;;;;-143.37;100.00;62585.38;5039695;28;20443;-75
2022/04/20 03:10:00;;;;;;;8.17;6.60;;;;;;;-143.37;100.00;62585.38;5051951;28;20450;-75
2022/04/20 03:12:43;;;;;;;6.20;5.60;;;;;;;-143.37;100.00;62585.38;5035520;28;20438;-75
2022/04/20 03:15:19;;;;;;;6.50;5.83;;;;;;;-143.37;100.00;62585.38;5030495;28;20458;-75
2022/04/20 03:17:55;;;;;;;6.50;5.87;;;;;;;-143.37;100.00;62585.38;5031276;28;20477;-75
2022/04/20 03:20:32;;;;;;;7.57;6.80;;;;;;;-143.37;100.00;62585.38;5033081;28;20860;-75
2022/04/20 03:23:08;;;;;;;6.50;5.90;;;;;;;-143.37;100.00;62585.38;5046455;28;20503;-75
2022/04/20 03:25:44;;;;;;;6.60;6.00;;;;;;;-143.37;100.00;62585.38;5060599;28;20450;-75
2022/04/20 03:28:54;;;;;;;6.73;6.07;;;;;;;-143.37;100.00;62585.38;5025220;28;20449;-75
2022/04/20 03:31:30;;;;;;;6.60;6.00;;;;;;;-143.37;100.00;62585.38;5034534;28;20446;-75
2022/04/20 03:34:09;;;;;;;6.20;5.60;;;;;;;-143.37;100.00;62585.38;5041067;28;20454;-75
2022/04/20 03:36:47;;;;;;;7.40;5.63;;;;;;;-143.37;100.00;62585.38;5031305;28;20455;-75
2022/04/20 03:39:23;;;;;;;7.00;6.23;;;;;;;-143.37;100.00;62585.38;5045574;28;20472;-75
2022/04/20 03:41:58;;;;;;;6.30;5.70;;;;;;;-143.37;100.00;62585.38;5022735;28;20442;-75
2022/04/20 03:44:35;;;;;;;6.10;5.50;;;;;;;-143.37;100.00;62585.38;5030133;28;20465;-75
2022/04/20 03:47:13;;;;;;;6.27;5.50;;;;;;;-143.37;100.00;62585.38;5060033;28;20437;-75
2022/04/20 03:49:49;;;;;;;5.70;5.10;;;;;;;-143.37;100.00;62585.38;5067737;28;20446;-75
2022/04/20 03:52:25;;;;;;;5.60;5.10;;;;;;;-143.37;100.00;62585.38;5049928;28;20441;-74
2022/04/20 03:55:01;;;;;;;6.03;4.80;;;;;;;-143.37;100.00;62585.38;5046357;28;20453;-75
2022/04/20 03:57:37;;;;;;;6.23;5.40;;;;;;;-143.37;100.00;62585.38;5069776;28;20445;-74
2022/04/20 04:00:14;;;;;;;5.90;5.30;;;;;;;-143.37;100.00;62585.38;5065733;28;20453;-75
2022/04/20 04:02:52;;;;;;;6.83;6.10;;;;;;;-143.37;100.00;62585.38;5047957;28;20470;-74
2022/04/20 04:05:38;;;;;;;9.13;6.83;;;;;;;-143.37;100.00;62585.38;5049893;28;20478;-74
2022/04/20 04:08:26;;;;;;;6.63;6.00;;;;;;;-143.37;100.00;62585.38;5041493;28;20469;-75
2022/04/20 04:11:03;;;;;;;7.80;5.70;;;;;;;-143.37;100.00;62585.38;5060309;28;20476;-75
2022/04/20 04:13:39;;;;;;;6.10;5.50;;;;;;;-143.37;100.00;62585.38;5043808;28;20456;-75
2022/04/20 04:16:16;;;;;;;6.67;6.07;;;;;;;-143.37;100.00;62585.38;5060313;28;20457;-75
2022/04/20 04:18:51;;;;;;;6.50;5.90;;;;;;;-143.37;100.00;62585.38;5054994;28;20457;-76
2022/04/20 04:21:27;;;;;;;6.43;5.83;;;;;;;-143.37;100.00;62585.38;5057358;28;20465;-75
2022/04/20 04:24:05;;;;;;;6.83;6.10;;;;;;;-143.37;100.00;62585.38;5064302;28;20808;-77
2022/04/20 04:26:45;;;;;;;6.90;6.30;;;;;;;-143.37;100.00;62585.38;5033002;28;20458;-76
2022/04/20 04:29:23;;;;;;;5.70;5.20;;;;;;;-143.37;100.00;62585.38;5040388;28;20917;-75
2022/04/20 04:32:00;;;;;;;6.17;5.60;;;;;;;-143.37;100.00;62585.38;5030997;28;20472;-75
2022/04/20 04:34:36;;;;;;;7.00;6.30;;;;;;;-143.37;100.00;62585.38;5048481;28;20571;-75
2022/04/20 04:37:16;;;;;;;8.13;6.83;;;;;;;-143.37;100.00;62585.38;5046034;28;20470;-75
2022/04/20 04:39:59;;;;;;;7.53;6.77;;;;;;;-143.37;100.00;62585.38;5048429;28;20470;-75
2022/04/20 04:42:52;;;;;;;6.47;5.87;;;;;;;-143.37;100.00;62585.38;5055837;28;20829;-75
2022/04/20 04:48:40;;;;;;;6.90;6.20;;;;;;;-143.37;100.00;62585.38;5051121;28;20946;-75
2022/04/20 04:51:19;;;;;;;7.00;6.40;;;;;;;-143.37;100.00;62585.38;5043264;28;20451;-75
2022/04/20 04:53:56;;;;;;;7.07;6.07;;;;;;;-143.37;100.00;62585.38;5048464;28;20451;-75
2022/04/20 04:56:40;;;;;;;5.93;5.43;;;;;;;-143.37;100.00;62585.38;5056419;28;20842;-75
2022/04/20 04:59:16;;;;;;;7.10;6.40;;;;;;;-143.37;100.00;62585.38;5049482;28;20477;-75
2022/04/20 05:01:53;;;;;;;6.00;5.50;;;;;;;-143.37;100.00;62585.38;5035507;28;20438;-74
2022/04/20 05:04:29;;;;;;;5.27;4.77;;;;;;;-143.37;100.00;62585.38;5034807;28;20453;-75
2022/04/20 05:07:17;;;;;;;5.90;5.30;;;;;;;-143.37;100.00;62585.38;5049017;28;20478;-75
2022/04/20 05:10:07;;;;;;;5.40;4.90;;;;;;;-143.37;100.00;62585.38;5050157;28;20500;-75
2022/04/20 05:12:47;;;;;;;7.07;6.37;;;;;;;-143.37;100.00;62585.38;5051231;28;20847;-75
2022/04/20 05:15:23;;;;;;;8.63;5.83;;;;;;;-143.37;100.00;62585.38;5050703;28;20449;-75
2022/04/20 05:17:59;;;;;;;7.00;6.10;;;;;;;-143.37;100.00;62585.38;5067520;28;20437;-75
2022/04/20 05:20:36;;;;;;;5.80;5.20;;;;;;;-143.37;100.00;62585.38;5025194;28;20489;-75
2022/04/20 05:23:13;;;;;;;6.17;5.07;;;;;;;-143.37;100.00;62585.38;5053607;28;20466;-75
2022/04/20 05:25:49;;;;;;;5.90;5.30;;;;;;;-143.37;100.00;62585.38;5046631;28;20459;-75
2022/04/20 05:28:26;;;;;;;6.20;5.60;;;;;;;-143.37;100.00;62585.38;5062717;28;20442;-74
2022/04/20 05:31:03;;;;;;;7.00;6.30;;;;;;;-143.37;100.00;62585.38;5056115;28;20449;-75
2022/04/20 05:33:39;;;;;;;6.73;6.10;;;;;;;-143.37;100.00;62585.38;5048325;28;20445;-75
2022/04/20 05:36:18;;;;;;;7.10;5.33;;;;;;;-143.37;100.00;62585.38;5049190;28;21101;-75
2022/04/20 05:41:47;;;;;;;6.20;5.60;;;;;;;-143.37;100.00;62585.38;5048717;28;20453;-74
2022/04/20 05:44:34;;;;;;;6.17;5.57;;;;;;;-143.37;100.00;62585.38;5050402;28;20450;-75
2022/04/20 05:47:15;;;;;;;6.60;5.90;;;;;;;-143.37;100.00;62585.38;5052335;28;20528;-75
2022/04/20 05:49:51;;;;;;;5.93;5.33;;;;;;;-143.37;100.00;62585.38;5064813;28;20461;-75
2022/04/20 05:52:28;;;;;;;6.13;5.53;;;;;;;-143.37;100.00;62585.38;5060165;28;20449;-76
2022/04/20 05:55:07;;;;;;;7.17;6.47;;;;;;;-143.37;100.00;62585.38;5048703;28;20480;-75
2022/04/20 05:57:47;;;;;;;6.20;5.70;;;;;;;-143.37;100.00;62585.38;5042852;28;20442;-75
2022/04/20 06:00:25;;;;;;;5.87;5.37;;;;;;;-143.37;100.00;62585.38;5049414;28;20473;-75
2022/04/20 06:03:26;;;;;;;6.17;5.40;;;;;;;-143.37;100.00;62585.38;5041683;28;20450;-75
2022/04/20 06:06:08;;;;;;;6.10;5.50;;;;;;;-143.37;100.00;62585.38;5050519;28;20505;-75
2022/04/20 06:09:01;;;;;;;6.20;5.70;;;;;;;-143.37;100.00;62585.38;5059027;28;20447;-74
2022/04/20 06:12:17;;;;;;;7.17;6.37;;;;;;;-143.37;100.00;62585.38;5049501;28;20450;-74
2022/04/20 06:15:15;;;;;;;6.17;5.57;;;;;;;-143.37;100.00;62585.38;5043421;28;20450;-75
2022/04/20 06:18:30;;;;;;;5.43;4.93;;;;;;;-143.37;100.00;62585.38;5019526;28;20559;-74
2022/04/20 06:21:24;;;;;;;7.03;4.83;;;;;;;-143.37;100.00;62585.38;5011350;28;20451;-74
2022/04/20 06:24:19;;;;;;;8.57;5.50;;;;;;;-143.37;100.00;62585.38;5041269;28;20451;-74
2022/04/20 06:27:07;;;;;;;6.00;5.23;;;;;;;-143.37;100.00;62585.38;5057894;28;20495;-76
2022/04/20 06:29:53;;;;;;;5.60;5.10;;;;;;;-143.37;100.00;62585.38;5059477;28;20546;-76
2022/04/20 06:32:36;;;;;;;6.07;5.47;;;;;;;-143.37;100.00;62585.38;5026468;28;20442;-76
2022/04/20 06:35:32;;;;;;;5.30;4.80;;;;;;;-143.37;100.00;62585.38;5032041;28;20454;-76
2022/04/20 06:38:27;;;;;;;5.23;4.73;;;;;;;-143.37;100.00;62585.38;5056512;28;20539;-76
2022/04/20 06:41:21;;;;;;;5.83;5.20;;;;;;;-143.37;100.00;62585.38;5063715;28;20971;-76
2022/04/20 06:44:16;;;;;;;5.63;5.03;;;;;;;-143.37;100.00;62585.38;5066588;28;20536;-76
2022/04/20 06:47:21;;;;;;;5.43;4.93;;;;;;;-143.37;100.00;62585.38;5059515;28;20459;-76
2022/04/20 06:50:16;;;;;;;5.67;5.17;;;;;;;-143.37;100.00;62585.38;5055123;28;20454;-76
2022/04/20 06:59:09;;;;;;;5.70;5.20;;;;;;;-143.37;100.00;62585.38;5034413;28;20454;-75
2022/04/20 07:02:14;;;;;;;5.90;4.90;;;;;;;-143.37;100.00;62585.38;5039259;28;20458;-75
2022/04/20 07:05:19;;;;;;;5.60;5.00;;;;;;;-143.37;100.00;62585.38;5043193;28;20439;-76
2022/04/20 07:08:15;;;;;;;5.33;4.73;;;;;;;-143.37;100.00;62585.38;5024947;28;20477;-76
2022/04/20 07:10:54;;;;;;;6.43;5.07;;;;;;;-143.37;100.00;62585.38;5000465;28;20439;-76
2022/04/20 07:13:30;;;;;;;6.00;5.30;;;;;;;-143.37;100.00;62585.38;5005645;28;20452;-76
2022/04/20 07:16:06;;;;;;;5.50;5.00;;;;;;;-143.37;100.00;62585.38;5006726;28;20458;-76
2022/04/20 07:18:44;;;;;;;5.30;4.80;;;;;;;-143.37;100.00;62585.38;5024272;28;20438;-75
2022/04/20 07:21:39;;;;;;;5.80;5.30;;;;;;;-143.37;100.00;62585.38;5024129;28;20465;-75
2022/04/20 07:24:48;;;;;;;6.20;5.40;;;;;;;-143.37;100.00;62585.38;4969606;28;20460;-76
2022/04/20 07:27:45;;;;;;;5.90;4.70;;;;;;;-143.37;100.00;62585.38;4991295;28;20450;-76
2022/04/20 07:30:47;;;;;;;5.83;5.30;;;;;;;-143.37;100.00;62585.38;5012815;28;20526;-76
2022/04/20 07:33:42;;;;;;;5.93;4.70;;;;;;;-143.37;100.00;62585.38;5029073;28;20469;-76
2022/04/20 07:36:54;;;;;;;5.70;5.13;;;;;;;-143.37;100.00;62585.38;5023889;28;20799;-75
2022/04/20 07:39:50;;;;;;;5.43;4.93;;;;;;;-143.37;100.00;62585.38;5047338;28;20542;-76
2022/04/20 07:42:47;;;;;;;6.30;5.50;;;;;;;-143.37;100.00;62585.38;5029515;28;20518;-76
2022/04/20 07:45:36;;;;;;;5.60;5.00;;;;;;;-143.37;100.00;62585.38;5027282;28;20462;-76
2022/04/20 07:48:14;;;;;;;6.83;6.20;;;;;;;-143.37;100.00;62585.38;5045911;28;20446;-76
2022/04/20 07:51:17;;;;;;;5.93;5.33;;;;;;;-143.37;100.00;62585.38;5018500;28;20482;-75
2022/04/20 07:54:25;;;;;;;6.60;5.90;;;;;;;-143.37;100.00;62585.38;5030397;28;20526;-76
2022/04/20 07:57:15;;;;;;;6.03;5.40;;;;;;;-143.37;100.00;62585.38;5015956;28;20455;-76
2022/04/20 08:00:15;;;;;;;6.33;5.70;;;;;;;-143.37;100.00;62585.38;5029970;28;20455;-76
2022/04/20 08:03:16;;;;;;;6.90;5.70;;;;;;;-143.37;100.00;62585.38;5043864;28;20459;-76
2022/04/20 08:05:54;;;;;;;6.23;5.67;;;;;;;-143.37;100.00;62585.38;5040234;28;20465;-76
2022/04/20 08:08:31;;;;;;;6.90;6.17;;;;;;;-143.37;100.00;62585.38;5033744;28;20545;-76
2022/04/20 08:11:09;;;;;;;9.20;6.27;;;;;;;-143.37;100.00;62585.38;5036773;28;20925;-76
2022/04/20 08:16:59;;;;;;;5.13;4.73;;;;;;;-143.37;100.00;62585.38;5043456;28;20443;-76
2022/04/20 08:19:37;;;;;;;9.40;6.10;;;;;;;-143.37;100.00;62585.38;5052319;28;21106;-76
2022/04/20 08:22:34;;;;;;;6.43;5.83;;;;;;;-143.37;100.00;62585.38;5057929;28;20546;-76
2022/04/20 08:25:10;;;;;;;6.50;5.60;;;;;;;-143.37;100.00;62585.38;5044859;28;20437;-76
2022/04/20 08:27:46;;;;;;;6.10;5.33;;;;;;;-143.37;100.00;62585.38;5063630;28;20450;-76
2022/04/20 08:30:22;;;;;;;6.40;5.80;;;;;;;-143.37;100.00;62585.38;5028081;28;20426;-76
2022/04/20 08:32:59;;;;;;;6.40;5.80;;;;;;;-143.37;100.00;62585.38;5045633;28;20540;-76
2022/04/20 08:35:38;;;;;;;6.33;5.73;;;;;;;-143.37;100.00;62585.38;5059504;28;20519;-76
2022/04/20 08:38:13;;;;;;;6.57;5.70;;;;;;;-143.37;100.00;62585.38;5036945;28;20477;-76
2022/04/20 08:40:50;;;;;;;8.13;5.50;;;;;;;-143.37;100.00;62585.38;5040357;28;20473;-76
2022/04/20 08:43:26;;;;;;;5.20;4.70;;;;;;;-143.37;100.00;62585.38;5046611;28;20454;-76
2022/04/20 08:46:03;;;;;;;6.30;5.70;;;;;;;-143.37;100.00;62585.38;5049573;28;20437;-76
2022/04/20 08:48:39;;;;;;;6.00;5.43;;;;;;;-143.37;100.00;62585.38;5049603;28;20515;-76
2022/04/20 08:51:15;;;;;;;7.03;4.93;;;;;;;-143.37;100.00;62585.38;5044778;28;20433;-76
2022/04/20 08:53:51;;;;;;;5.60;5.10;;;;;;;-143.37;100.00;62585.38;5049030;28;20840;-76
2022/04/20 08:59:20;;;;;;;5.73;5.10;;;;;;;-143.37;100.00;62585.38;5029741;28;20455;-76
2022/04/20 09:01:58;;;;;;;6.07;5.00;;;;;;;-143.37;100.00;62585.38;5051561;28;20454;-76
2022/04/20 09:04:35;;;;;;;6.30;5.30;;;;;;;-143.37;100.00;62585.38;5048125;28;20781;-77
2022/04/20 09:07:15;;;;;;;5.30;4.80;;;;;;;-143.37;100.00;62585.38;5052826;28;20543;-76
2022/04/20 09:09:51;;;;;;;5.00;4.57;;;;;;;-143.37;100.00;62585.38;5041910;28;20944;-76
2022/04/20 09:12:26;;;;;;;5.53;4.93;;;;;;;-143.37;100.00;62585.38;5044083;28;20908;-76
2022/04/20 09:15:02;;;;;;;9.03;5.20;;;;;;;-143.37;100.00;62585.38;5036261;28;20457;-76
2022/04/20 09:17:41;;;;;;;5.23;4.73;;;;;;;-143.37;100.00;62585.38;5065960;28;20901;-78
2022/04/20 09:20:18;;;;;;;4.83;4.27;;;;;;;-143.37;100.00;62585.38;5043897;28;20494;-76
2022/04/20 09:23:01;;;;;;;5.70;4.13;;;;;;;-143.37;100.00;62585.38;5023507;28;20454;-76
2022/04/20 09:25:37;;;;;;;6.20;4.90;;;;;;;-143.37;100.00;62585.38;5049410;28;20458;-76
2022/04/20 09:28:14;;;;;;;5.53;4.20;;;;;;;-143.37;100.00;62585.38;5064225;28;20465;-76
2022/04/20 09:30:51;;;;;;;5.00;4.50;;;;;;;-143.37;100.00;62585.38;5033557;28;20442;-75
2022/04/20 09:33:54;;;;;;;4.67;4.30;;;;;;;-143.37;100.00;62585.38;5048086;28;20547;-75
2022/04/20 09:36:43;;;;;;;5.00;4.50;;;;;;;-143.37;100.00;62585.38;5052297;28;20786;-76
2022/04/20 09:39:20;;;;;;;4.40;4.00;;;;;;;-143.37;100.00;62585.38;5067654;28;20438;-76
2022/04/20 09:41:58;;;;;;;5.33;4.80;;;;;;;-143.37;100.00;62585.38;5059127;28;20450;-76
2022/04/20 09:44:35;;;;;;;5.00;4.17;;;;;;;-143.37;100.00;62585.38;5035844;28;20482;-76
2022/04/20 09:50:06;;;;;;;6.10;4.20;;;;;;;-143.37;100.00;62585.38;5061723;28;20523;-76
2022/04/20 09:52:47;;;;;;;4.80;4.40;;;;;;;-143.37;100.00;62585.38;5049726;28;20943;-75
2022/04/20 09:55:30;;;;;;;5.00;4.47;;;;;;;-143.37;100.00;62585.38;5036820;28;20439;-75
2022/04/20 09:58:15;;;;;;;4.53;4.13;;;;;;;-143.37;100.00;62585.38;5067346;28;20540;-75
2022/04/20 10:00:51;;;;;;;5.93;5.30;;;;;;;-143.37;100.00;62585.38;5048369;28;20474;-76
2022/04/20 10:03:28;;;;;;;6.17;4.00;;;;;;;-143.37;100.00;62585.38;5051865;28;20434;-77
2022/04/20 10:06:04;;;;;;;5.17;4.67;;;;;;;-143.37;100.00;62585.38;5051276;28;20987;-76
2022/04/20 10:08:41;;;;;;;5.33;4.63;;;;;;;-143.37;100.00;62585.38;5020414;28;20456;-76
2022/04/20 10:11:16;;;;;;;5.17;4.67;;;;;;;-143.37;100.00;62585.38;5080083;28;20548;-76
2022/04/20 10:16:48;;;;;;;5.17;4.67;;;;;;;-143.37;100.00;62585.38;5064907;28;20438;-75
2022/04/20 10:19:27;;;;;;;4.20;3.80;;;;;;;-143.37;100.00;62585.38;5059641;28;20465;-76
2022/04/20 10:22:05;;;;;;;4.70;4.30;;;;;;;-143.37;100.00;62585.38;5063915;28;20443;-76
2022/04/20 10:24:46;;;;;;;5.00;4.47;;;;;;;-143.37;100.00;62585.38;5072420;28;20435;-76
2022/04/20 10:27:24;;;;;;;4.73;3.30;;;;;;;-143.37;100.00;62585.38;5058555;28;20455;-76
2022/04/20 10:30:03;;;;;;;4.63;4.10;;;;;;;-143.37;100.00;62585.38;5064540;28;20544;-76
2022/04/20 10:32:51;;;;;;;5.00;4.53;;;;;;;-143.37;100.00;62585.38;5063076;28;20454;-76
2022/04/20 10:35:32;;;;;;;5.30;4.80;;;;;;;-143.37;100.00;62585.38;5063820;28;20478;-75
2022/04/20 10:38:13;;;;;;;5.43;4.53;;;;;;;-143.37;100.00;62585.38;5061888;28;20533;-76
2022/04/20 10:41:10;;;;;;;6.60;5.00;;;;;;;-143.37;100.00;62585.38;5052096;28;20473;-76
2022/04/20 10:43:47;;;;;;;4.40;4.00;;;;;;;-143.37;100.00;62585.38;5052721;28;20434;-76
2022/04/20 10:46:23;;;;;;;7.10;3.67;;;;;;;-143.37;100.00;62585.38;5062318;28;20811;-75
2022/04/20 10:49:02;;;;;;;4.97;4.47;;;;;;;-143.37;100.00;62585.38;5064920;28;20433;-75
2022/04/20 10:51:40;;;;;;;5.10;4.07;;;;;;;-143.37;100.00;62585.38;5038960;28;20537;-75
2022/04/20 10:54:27;;;;;;;4.47;4.07;;;;;;;-143.37;100.00;62585.38;5066269;28;20430;-74
2022/04/20 10:57:17;;;;;;;5.07;4.13;;;;;;;-143.37;100.00;62585.38;5076457;28;20442;-75
2022/04/20 11:00:25;;;;;;;4.57;4.17;;;;;;;-143.37;100.00;62585.38;5063619;28;20473;-75
2022/04/20 11:03:05;;;;;;;4.60;4.20;;;;;;;-143.37;100.00;62585.38;5053984;28;20461;-75
2022/04/20 11:05:50;;;;;;;4.80;4.30;;;;;;;-143.37;100.00;62585.38;5037711;28;20466;-74
2022/04/20 11:08:26;;;;;;;5.20;4.70;;;;;;;-143.37;100.00;62585.38;5049917;28;20540;-74
2022/04/20 11:21:11;;;;;;;5.23;4.13;;;;;;;-143.37;100.00;62585.38;5039297;28;20599;-75
2022/04/20 11:23:55;;;;;;;5.70;5.13;;;;;;;-143.37;100.00;62585.38;5062260;28;20439;-75
2022/04/20 11:26:34;;;;;;;4.93;4.33;;;;;;;-143.37;100.00;62585.38;5080517;28;20438;-75
2022/04/20 11:29:11;;;;;;;4.90;4.40;;;;;;;-143.37;100.00;62585.38;5053137;28;20450;-75
2022/04/20 11:31:52;;;;;;;4.43;4.00;;;;;;;-143.37;100.00;62585.38;5051735;28;20541;-74
2022/04/20 11:34:32;;;;;;;5.00;4.50;;;;;;;-143.37;100.00;62585.38;5062639;28;20429;-75
2022/04/20 11:37:09;;;;;;;7.23;5.37;;;;;;;-143.37;100.00;62585.38;5062891;28;20450;-75
2022/04/20 11:39:44;;;;;;;4.90;4.40;;;;;;;-143.37;100.00;62585.38;5064355;28;20778;-74
2022/04/20 11:42:20;;;;;;;5.93;4.60;;;;;;;-143.37;100.00;62585.38;5064120;28;20437;-75
2022/04/20 11:44:55;;;;;;;6.30;4.80;;;;;;;-143.37;100.00;62585.38;5064361;28;20983;-75
2022/04/20 11:47:41;;;;;;;4.83;4.33;;;;;;;-143.37;100.00;62585.38;5062089;28;20461;-76
2022/04/20 11:50:18;;;;;;;4.73;4.33;;;;;;;-143.37;100.00;62585.38;5065137;28;20558;-76
2022/04/20 11:53:03;;;;;;;4.80;4.30;;;;;;;-143.37;100.00;62585.38;5064435;28;20958;-75
2022/04/20 11:55:54;;;;;;;6.07;5.57;;;;;;;-143.37;100.00;62585.38;5064909;28;20443;-75
2022/04/20 11:58:30;;;;;;;5.37;4.80;;;;;;;-143.37;100.00;62585.38;5064092;28;20632;-76
2022/04/20 12:01:15;;;;;;;5.90;4.73;;;;;;;-143.37;100.00;62585.38;5080506;28;20458;-76
2022/04/20 12:03:53;;;;;;;7.93;4.83;;;;;;;-143.37;100.00;62585.38;5064101;28;20908;-76
2022/04/20 12:06:30;;;;;;;5.70;5.17;;;;;;;-143.37;100.00;62585.38;5063365;28;20481;-76
2022/04/20 12:09:08;;;;;;;5.70;5.10;;;;;;;-143.37;100.00;62585.38;5079980;28;21019;-76
2022/04/20 12:11:45;;;;;;;6.20;4.67;;;;;;;-143.37;100.00;62585.38;5051444;28;21029;-76
2022/04/20 12:14:22;;;;;;;6.43;5.43;;;;;;;-143.37;100.00;62585.38;5058329;28;20442;-76
2022/04/20 12:17:00;;;;;;;4.70;4.30;;;;;;;-143.37;100.00;62585.38;5054827;28;20465;-75
2022/04/20 12:19:46;;;;;;;6.20;5.60;;;;;;;-143.37;100.00;62585.38;5061218;28;20450;-76
2022/04/20 12:22:22;;;;;;;5.57;5.03;;;;;;;-143.37;100.00;62585.38;5053164;28;20477;-76
2022/04/20 12:25:05;;;;;;;5.00;4.40;;;;;;;-143.37;100.00;62585.38;5066793;28;20525;-76
2022/04/20 12:27:52;;;;;;;4.70;4.30;;;;;;;-143.37;100.00;62585.38;5066201;28;20465;-75
2022/04/20 12:30:45;;;;;;;4.67;4.27;;;;;;;-143.37;100.00;62585.38;5080474;28;20435;-75
2022/04/20 12:33:22;;;;;;;4.90;4.40;;;;;;;-143.37;100.00;62585.38;5057536;28;20442;-76
2022/04/20 12:36:03;;;;;;;5.90;4.80;;;;;;;-143.37;100.00;62585.38;5048821;28;20435;-76
2022/04/20 12:38:50;;;;;;;5.07;4.57;;;;;;;-143.37;100.00;62585.38;5068997;28;20446;-75
2022/04/20 12:41:41;;;;;;;5.67;5.07;;;;;;;-143.37;100.00;62585.38;5038811;28;20945;-76
2022/04/20 12:44:48;;;;;;;6.23;5.00;;;;;;;-143.37;100.00;62585.38;5067284;28;20801;-74
2022/04/20 12:47:34;;;;;;;5.13;4.67;;;;;;;-143.37;100.00;62585.38;5066233;28;20847;-76
2022/04/20 12:50:21;;;;;;;6.43;4.27;;;;;;;-143.37;100.00;62585.38;5065215;28;20446;-76
2022/04/20 12:53:00;;;;;;;4.90;4.50;;;;;;;-143.37;100.00;62585.38;5050261;28;20442;-76
2022/04/20 12:55:41;;;;;;;4.27;3.87;;;;;;;-143.37;100.00;62585.38;5066223;28;20477;-74
2022/04/20 13:04:14;;;;;;;4.70;4.07;;;;;;;-143.37;100.00;62585.38;5032058;28;20438;-76